Decoded Metar for KOCW (WASHINGTON in NC, USA) (IATA:OCW) | Meteo·Mobile Aviation Weather
aviador You're here:

KOCW Decoded Metar

WASHINGTON in NC, USA
Report Time2019-04-19 22:40:00
UTC Time2019-04-19 22:54:01
Flight Rules mvfr MVFR
Wind160° at 14 Gusting to 20 kt
W.Decomp.*RWY 17: 14.0 kt HW 0.5 kt LCW
RWY 23: 6.6 kt HW 12.4 kt LCW
Visibility9999 m
Phenomena:N/A
Clouds:Broken 029 Hf
Overcast 038 Hf
Expected CloudBase > 2,000 ft AGL from Temp-Dew spread
Ceiling2,900 ft
Temp25°C (ISA +10)
Dew Point20°C (74% RH)
AAT23.7°C
QNH1005 hPa
Density Alt1,785 ft
Elevation39 ft
Report Wrong Elevation
Raw Report
METAR KOCW 192240Z AUTO 16014G20KT 10SM BKN029 OVC038 25/20 A2968 RMK
AO2 T02460197=

Extra information for KOCW:More info

Metar Taf Metar & Taf Last 4 Metars F.Rules Stats Wind Profile Meteogram Temp Stats Airport Information Weather charts Add Link Nearby VenuesMetar ALERT Operation Metar Decoded Social comments

AIRNAV info for KOCW